Time;durP1;ratioP1;P1;durP2;ratioP2;P2;SDS_P1;SDS_P2;PMS_P1;PMS_P2;Temp;Humidity;BMP_temperature;BMP_pressure;BME280_temperature;BME280_humidity;BME280_pressure;Samples;Min_cycle;Max_cycle;Signal;HPM_P1;HPM_P2
2022/03/12 00:02:34;;;;;;;6.43;4.77;;;;;;;4.22;23.03;98273.13;8315179;28;20236;-64
2022/03/12 00:06:37;;;;;;;6.50;4.53;;;;;;;4.80;22.14;98278.25;8316624;28;20237;-63
2022/03/12 00:10:43;;;;;;;6.60;4.13;;;;;;;4.54;22.45;98287.19;8316409;28;20240;-64
2022/03/12 00:14:48;;;;;;;6.17;4.13;;;;;;;4.24;22.89;98278.22;8316589;28;20256;-63
2022/03/12 00:18:55;;;;;;;7.13;4.40;;;;;;;4.22;22.78;98287.66;8316726;28;20243;-63
2022/03/12 00:22:58;;;;;;;6.07;4.53;;;;;;;4.28;22.75;98290.13;8316669;28;20531;-64
2022/03/12 00:27:02;;;;;;;8.60;4.37;;;;;;;4.27;22.75;98289.28;8316360;28;20240;-64
2022/03/12 00:31:05;;;;;;;6.27;4.30;;;;;;;3.92;22.89;98290.63;8316058;28;20240;-64
2022/03/12 00:35:10;;;;;;;7.03;4.37;;;;;;;4.14;22.98;98298.00;8315768;28;20292;-64
2022/03/12 00:39:15;;;;;;;7.77;4.63;;;;;;;3.84;23.09;98292.41;8316026;28;20233;-64
2022/03/12 00:43:22;;;;;;;5.53;3.87;;;;;;;4.05;22.81;98293.00;8315950;28;20239;-64
2022/03/12 00:47:26;;;;;;;8.33;4.37;;;;;;;3.98;22.93;98297.38;8315709;28;20267;-64
2022/03/12 00:51:29;;;;;;;7.57;4.17;;;;;;;4.12;23.08;98299.75;8315553;28;20237;-64
2022/03/12 00:55:32;;;;;;;9.80;4.17;;;;;;;3.79;23.25;98309.56;8315072;28;20237;-64
2022/03/12 00:59:36;;;;;;;5.83;3.80;;;;;;;3.82;23.27;98303.53;8315389;28;20240;-65
2022/03/12 01:03:39;;;;;;;7.73;4.33;;;;;;;4.45;22.94;98315.53;8315159;28;20240;-64
2022/03/12 01:07:42;;;;;;;5.77;4.20;;;;;;;4.21;22.93;98317.59;8315120;28;20240;-64
2022/03/12 01:11:45;;;;;;;10.73;4.93;;;;;;;3.90;23.29;98315.41;8314119;28;20531;-64
2022/03/12 01:15:50;;;;;;;7.67;4.50;;;;;;;3.88;22.96;98313.72;8314934;28;20241;-66
2022/03/12 01:19:53;;;;;;;8.57;4.37;;;;;;;3.54;23.44;98311.53;8314856;28;20300;-66
2022/03/12 01:23:57;;;;;;;9.57;4.53;;;;;;;3.74;23.86;98313.88;8314753;28;20235;-65
2022/03/12 01:28:00;;;;;;;6.77;4.60;;;;;;;4.11;23.14;98321.97;8314896;28;20426;-65
2022/03/12 01:32:05;;;;;;;7.00;4.23;;;;;;;3.68;23.31;98316.53;8314771;28;20398;-65
2022/03/12 01:36:08;;;;;;;5.90;4.30;;;;;;;4.60;22.86;98319.59;8314657;28;20543;-65
2022/03/12 01:40:13;;;;;;;6.67;4.93;;;;;;;4.64;22.73;98323.81;8314394;28;20228;-65
2022/03/12 01:44:15;;;;;;;7.30;4.50;;;;;;;4.33;22.80;98326.81;8315649;28;20543;-65
2022/03/12 01:48:20;;;;;;;9.20;4.83;;;;;;;4.21;23.01;98312.47;8316578;28;20208;-65
2022/03/12 01:52:25;;;;;;;6.57;4.57;;;;;;;4.05;23.27;98309.22;8316762;28;20223;-65
2022/03/12 01:56:29;;;;;;;6.23;4.30;;;;;;;4.54;22.74;98312.00;8316114;28;20216;-65
2022/03/12 02:00:41;;;;;;;8.60;4.80;;;;;;;4.11;22.82;98310.84;8316282;28;20201;-65
2022/03/12 02:04:49;;;;;;;5.93;4.50;;;;;;;3.82;23.15;98301.81;8314865;28;20319;-65
2022/03/12 02:08:58;;;;;;;8.27;4.10;;;;;;;4.31;22.78;98305.47;8313877;28;20512;-65
2022/03/12 02:13:01;;;;;;;8.97;4.70;;;;;;;4.50;22.67;98296.66;8314072;28;20244;-65
2022/03/12 02:17:09;;;;;;;5.37;4.30;;;;;;;3.65;23.39;98296.88;8313842;28;20229;-65
2022/03/12 02:21:13;;;;;;;5.27;4.37;;;;;;;3.79;23.32;98286.50;8314178;28;20235;-65
2022/03/12 02:25:18;;;;;;;7.23;4.40;;;;;;;3.59;23.59;98285.88;8320002;28;20238;-65
2022/03/12 02:29:22;;;;;;;7.67;4.63;;;;;;;3.90;23.39;98288.91;8319878;28;20240;-65
2022/03/12 02:33:27;;;;;;;6.70;4.50;;;;;;;3.82;23.48;98288.16;8319864;28;20236;-66
2022/03/12 02:37:33;;;;;;;7.87;4.63;;;;;;;4.00;23.27;98292.22;8319479;28;20260;-65
2022/03/12 02:41:40;;;;;;;6.27;4.97;;;;;;;3.63;24.20;98290.09;8319030;28;20236;-65
2022/03/12 02:45:44;;;;;;;5.93;4.20;;;;;;;4.10;23.48;98284.38;8319351;28;20233;-65
2022/03/12 02:49:49;;;;;;;7.60;4.43;;;;;;;4.02;23.76;98287.94;8318940;28;20240;-65
2022/03/12 02:53:55;;;;;;;8.40;4.47;;;;;;;4.01;24.05;98294.75;8318744;28;20241;-65
2022/03/12 02:58:00;;;;;;;5.77;4.40;;;;;;;4.50;23.49;98301.78;8318876;28;20236;-65
2022/03/12 03:02:03;;;;;;;6.33;4.40;;;;;;;4.19;23.51;98293.69;8318715;28;20235;-65
2022/03/12 03:06:07;;;;;;;5.90;4.23;;;;;;;4.38;23.49;98291.72;8318660;28;20232;-65
2022/03/12 03:10:10;;;;;;;6.57;4.27;;;;;;;4.41;23.43;98286.53;8318164;28;20424;-65
2022/03/12 03:14:18;;;;;;;11.33;4.70;;;;;;;4.48;23.42;98293.25;8318550;28;20228;-65
2022/03/12 03:18:24;;;;;;;5.80;4.20;;;;;;;4.17;23.79;98285.16;8318391;28;20244;-65
2022/03/12 03:22:29;;;;;;;7.30;4.80;;;;;;;3.84;24.17;98278.75;8318330;28;20252;-65
2022/03/12 03:26:51;;;;;;;8.40;4.60;;;;;;;4.45;23.84;98298.44;8317476;28;20425;-65
2022/03/12 03:30:56;;;;;;;6.33;4.80;;;;;;;4.90;23.18;98310.59;8317719;28;20239;-65
2022/03/12 03:34:59;;;;;;;7.73;4.53;;;;;;;3.99;24.35;98265.75;8317039;28;20228;-66
2022/03/12 03:39:03;;;;;;;9.47;4.87;;;;;;;3.80;24.42;98267.69;8318056;28;20593;-66
2022/03/12 03:43:09;;;;;;;7.57;4.70;;;;;;;4.03;24.35;98267.38;8317523;28;20240;-65
2022/03/12 03:47:14;;;;;;;7.10;4.70;;;;;;;4.13;24.21;98280.94;8317690;28;20237;-65
2022/03/12 03:51:17;;;;;;;7.60;4.80;;;;;;;4.19;24.16;98280.00;8317717;28;20243;-65
2022/03/12 03:55:20;;;;;;;8.33;4.70;;;;;;;4.43;23.89;98289.91;8317353;28;20437;-65
2022/03/12 03:59:23;;;;;;;5.20;4.70;;;;;;;3.89;24.49;98279.56;8317081;28;20237;-65
2022/03/12 04:03:32;;;;;;;9.23;5.10;;;;;;;3.94;24.54;98275.22;8316781;28;20233;-65
2022/03/12 04:07:38;;;;;;;5.53;4.67;;;;;;;4.34;23.96;98287.50;8316554;28;20239;-65
2022/03/12 04:11:43;;;;;;;5.73;4.73;;;;;;;4.67;23.76;98291.28;8316948;28;20271;-65
2022/03/12 04:15:46;;;;;;;7.37;4.90;;;;;;;3.42;24.53;98293.75;8316567;28;20342;-65
2022/03/12 04:19:50;;;;;;;5.30;4.50;;;;;;;3.72;24.41;98300.25;8316722;28;20233;-65
2022/03/12 04:23:54;;;;;;;7.07;5.00;;;;;;;3.41;24.93;98303.16;8316476;28;20240;-65
2022/03/12 04:27:57;;;;;;;7.23;5.50;;;;;;;3.53;24.80;98308.13;8315997;28;20229;-65
2022/03/12 04:32:00;;;;;;;6.10;4.73;;;;;;;3.26;25.33;98316.94;8316095;28;20236;-65
2022/03/12 04:36:05;;;;;;;8.20;4.90;;;;;;;3.55;24.99;98317.50;8315950;28;20232;-65
2022/03/12 04:40:11;;;;;;;6.57;4.47;;;;;;;3.46;24.86;98326.97;8315926;28;20229;-65
2022/03/12 04:44:13;;;;;;;7.93;4.93;;;;;;;3.49;24.94;98332.06;8315510;28;20235;-63
2022/03/12 04:48:18;;;;;;;8.83;4.87;;;;;;;4.35;24.22;98331.94;8315479;28;20544;-63
2022/03/12 04:52:23;;;;;;;8.20;4.93;;;;;;;4.27;24.14;98329.47;8315576;28;20233;-63
2022/03/12 04:56:27;;;;;;;8.97;4.93;;;;;;;3.55;25.03;98343.13;8315066;28;20243;-65
2022/03/12 05:00:31;;;;;;;7.30;4.93;;;;;;;3.46;24.93;98354.28;8315112;28;20468;-65
2022/03/12 05:04:34;;;;;;;8.00;4.77;;;;;;;3.68;25.18;98353.22;8314863;28;20255;-65
2022/03/12 05:08:38;;;;;;;5.90;5.00;;;;;;;3.43;25.01;98356.91;8314756;28;20571;-65
2022/03/12 05:12:41;;;;;;;8.23;5.27;;;;;;;4.28;24.65;98369.63;8313307;28;20237;-65
2022/03/12 05:16:45;;;;;;;6.20;5.07;;;;;;;3.84;24.62;98368.41;8293408;28;20560;-65
2022/03/12 05:20:48;;;;;;;7.37;5.37;;;;;;;4.49;24.47;98374.47;8281720;28;20252;-65
2022/03/12 05:24:56;;;;;;;6.53;5.17;;;;;;;4.80;24.22;98380.91;8282675;28;20249;-65
2022/03/12 05:28:58;;;;;;;7.37;4.87;;;;;;;4.68;24.59;98387.03;8282467;28;20235;-65
2022/03/12 05:33:04;;;;;;;7.13;5.23;;;;;;;4.93;23.98;98385.00;8282205;28;20229;-65
2022/03/12 05:37:08;;;;;;;7.97;5.03;;;;;;;4.47;24.16;98388.19;8282306;28;20241;-65
2022/03/12 05:41:15;;;;;;;7.23;5.33;;;;;;;4.31;24.53;98396.06;8301058;28;20233;-65
2022/03/12 05:45:19;;;;;;;9.07;5.47;;;;;;;4.50;24.33;98393.28;8314791;28;20240;-65
2022/03/12 05:49:22;;;;;;;6.57;5.03;;;;;;;4.49;24.24;98396.69;8314453;28;20243;-65
2022/03/12 05:53:25;;;;;;;5.83;4.67;;;;;;;4.70;24.18;98399.00;8310073;28;20229;-65
2022/03/12 05:57:31;;;;;;;6.60;5.03;;;;;;;5.15;24.31;98406.03;8317156;28;20247;-65
2022/03/12 06:01:33;;;;;;;7.63;5.57;;;;;;;5.51;23.33;98411.44;8320236;28;20519;-65
2022/03/12 06:05:43;;;;;;;6.30;5.00;;;;;;;5.41;23.22;98407.34;8301012;28;20230;-66
2022/03/12 06:09:46;;;;;;;6.00;4.80;;;;;;;4.60;24.05;98411.97;8287788;28;20470;-65
2022/03/12 06:13:59;;;;;;;6.87;4.90;;;;;;;4.37;24.11;98407.97;8287686;28;20256;-65
2022/03/12 06:18:02;;;;;;;11.37;4.73;;;;;;;4.40;24.16;98410.50;8287625;28;20233;-65
2022/03/12 06:22:06;;;;;;;6.43;4.80;;;;;;;4.61;24.16;98411.09;8287394;28;20236;-65
2022/03/12 06:26:14;;;;;;;6.30;5.07;;;;;;;3.92;24.62;98412.75;8287097;28;20237;-65
2022/03/12 06:30:18;;;;;;;7.50;5.00;;;;;;;4.49;23.97;98419.78;8287390;28;20237;-65
2022/03/12 06:34:22;;;;;;;7.53;4.77;;;;;;;5.13;23.88;98430.88;8287164;28;20244;-65
2022/03/12 06:38:26;;;;;;;5.83;4.83;;;;;;;4.28;23.90;98433.72;8286838;28;20267;-65
2022/03/12 06:42:33;;;;;;;10.03;5.37;;;;;;;4.53;24.12;98441.13;8286862;28;20244;-65
2022/03/12 06:46:37;;;;;;;7.80;4.67;;;;;;;4.19;24.47;98441.50;8289246;28;20239;-66
2022/03/12 06:50:41;;;;;;;8.10;6.83;;;;;;;4.03;24.35;98445.97;8302152;28;20221;-65
2022/03/12 06:54:44;;;;;;;6.23;5.10;;;;;;;3.63;24.99;98433.53;8301392;28;20446;-65
2022/03/12 06:58:47;;;;;;;6.50;4.50;;;;;;;3.78;24.65;98433.38;8301664;28;20228;-65
2022/03/12 07:02:52;;;;;;;6.00;5.10;;;;;;;4.03;24.49;98431.41;8303465;28;20548;-65
2022/03/12 07:06:55;;;;;;;9.93;5.00;;;;;;;4.11;23.83;98439.03;8301551;28;20244;-65
2022/03/12 07:10:59;;;;;;;9.03;5.50;;;;;;;4.68;23.39;98440.91;8300947;28;20232;-65
2022/03/12 07:15:03;;;;;;;12.07;5.23;;;;;;;4.74;23.37;98435.72;8301398;28;20224;-65
2022/03/12 07:19:07;;;;;;;10.97;5.10;;;;;;;4.48;23.76;98442.03;8301281;28;20239;-65
2022/03/12 07:23:10;;;;;;;6.27;4.73;;;;;;;5.71;22.89;98446.22;8301095;28;20232;-65
2022/03/12 07:27:13;;;;;;;5.17;4.43;;;;;;;6.10;22.34;98451.59;8300871;28;20239;-65
2022/03/12 07:31:16;;;;;;;5.63;5.03;;;;;;;5.99;21.85;98454.34;8300827;28;20239;-65
2022/03/12 07:35:21;;;;;;;6.17;4.60;;;;;;;6.84;21.11;98453.53;8285031;28;20438;-65
2022/03/12 07:39:24;;;;;;;6.40;5.20;;;;;;;7.16;20.78;98450.25;8284634;28;20237;-65
2022/03/12 07:43:27;;;;;;;7.07;5.97;;;;;;;8.01;20.20;98464.50;8284749;28;20237;-65
2022/03/12 07:47:36;;;;;;;7.70;4.70;;;;;;;7.80;19.85;98455.56;8284427;28;20233;-65
2022/03/12 07:51:43;;;;;;;6.50;4.33;;;;;;;8.35;19.34;98470.47;8284589;28;20237;-65
2022/03/12 07:55:46;;;;;;;6.87;5.27;;;;;;;8.66;19.19;98473.06;8297041;28;20446;-63
2022/03/12 07:59:49;;;;;;;6.57;5.30;;;;;;;8.69;18.98;98457.50;8299984;28;20274;-63
2022/03/12 08:03:52;;;;;;;7.37;5.03;;;;;;;9.21;18.43;98473.19;8300164;28;20226;-63
2022/03/12 08:07:56;;;;;;;6.17;4.57;;;;;;;8.73;18.67;98477.19;8299265;28;20237;-63
2022/03/12 08:11:59;;;;;;;5.57;4.50;;;;;;;9.46;18.38;98472.41;8299665;28;20236;-63
2022/03/12 08:16:02;;;;;;;6.90;4.57;;;;;;;10.47;18.40;98465.59;8299365;28;20229;-64
2022/03/12 08:20:07;;;;;;;5.60;4.80;;;;;;;9.24;18.02;98475.69;8297967;28;20253;-64
2022/03/12 08:24:15;;;;;;;8.17;4.73;;;;;;;8.96;18.06;98476.50;8299445;28;20550;-64
2022/03/12 08:28:18;;;;;;;10.63;4.40;;;;;;;8.71;18.07;98478.13;8299171;28;20554;-64
2022/03/12 08:32:21;;;;;;;5.00;4.30;;;;;;;10.00;17.58;98473.28;8299059;28;20277;-64
2022/03/12 08:36:24;;;;;;;5.13;4.37;;;;;;;10.41;17.03;98473.59;8300885;28;20236;-64
2022/03/12 08:40:29;;;;;;;5.50;4.47;;;;;;;10.28;16.56;98471.41;8298724;28;20443;-64
2022/03/12 08:44:32;;;;;;;5.00;4.40;;;;;;;10.32;16.64;98473.03;8298156;28;20224;-64
2022/03/12 08:48:36;;;;;;;7.20;4.90;;;;;;;9.65;17.03;98462.34;8298267;28;20237;-64
2022/03/12 08:52:41;;;;;;;6.13;4.77;;;;;;;9.61;16.79;98460.75;8299903;28;20229;-64
2022/03/12 08:56:45;;;;;;;6.17;4.73;;;;;;;10.16;16.67;98464.06;8315501;28;20244;-64
2022/03/12 09:00:52;;;;;;;5.17;4.27;;;;;;;10.71;15.33;98464.72;8315270;28;20247;-64
2022/03/12 09:04:55;;;;;;;6.40;5.40;;;;;;;10.27;16.25;98450.75;8314648;28;20237;-64
2022/03/12 09:08:59;;;;;;;5.03;4.20;;;;;;;9.94;16.36;98443.28;8314824;28;20248;-64
2022/03/12 09:13:06;;;;;;;8.20;4.13;;;;;;;9.92;16.04;98440.72;8314790;28;20554;-64
2022/03/12 09:17:09;;;;;;;5.57;4.40;;;;;;;10.20;16.49;98437.19;8314674;28;20415;-64
2022/03/12 09:21:13;;;;;;;7.20;4.50;;;;;;;10.56;15.71;98432.44;8314895;28;20424;-64
2022/03/12 09:25:17;;;;;;;6.93;4.37;;;;;;;10.76;16.61;98436.06;8314688;28;20236;-64
2022/03/12 09:29:22;;;;;;;7.37;4.83;;;;;;;10.41;16.46;98430.41;8314701;28;20243;-64
2022/03/12 09:33:25;;;;;;;6.73;4.40;;;;;;;12.35;15.17;98427.88;8318850;28;20239;-64
2022/03/12 09:37:28;;;;;;;5.10;3.97;;;;;;;12.74;14.88;98444.34;8321575;28;20232;-64
2022/03/12 09:41:34;;;;;;;9.40;4.80;;;;;;;12.25;15.23;98443.00;8320899;28;20229;-65
2022/03/12 09:45:38;;;;;;;5.03;4.30;;;;;;;11.48;15.52;98437.56;8321148;28;20535;-64
2022/03/12 09:49:41;;;;;;;6.00;4.40;;;;;;;12.15;15.52;98435.69;8321028;28;20240;-64
2022/03/12 09:53:45;;;;;;;5.07;4.40;;;;;;;10.85;15.77;98427.06;8321153;28;20557;-64
2022/03/12 09:57:49;;;;;;;5.23;4.53;;;;;;;11.19;16.09;98429.19;8320875;28;20539;-64
2022/03/12 10:01:55;;;;;;;8.30;5.00;;;;;;;11.76;15.67;98424.31;8320876;28;20232;-63
2022/03/12 10:05:58;;;;;;;4.90;4.27;;;;;;;12.51;14.96;98415.06;8320473;28;20233;-64
2022/03/12 10:10:01;;;;;;;5.10;4.47;;;;;;;12.74;15.15;98416.63;8317076;28;20243;-64
2022/03/12 10:14:04;;;;;;;6.60;4.90;;;;;;;12.01;15.25;98410.31;8320529;28;20233;-64
2022/03/12 10:18:09;;;;;;;5.30;4.30;;;;;;;12.94;14.44;98410.47;8320400;28;20240;-62
2022/03/12 10:22:12;;;;;;;7.73;4.80;;;;;;;13.01;14.91;98404.06;8320324;28;20428;-63
2022/03/12 10:26:15;;;;;;;5.20;4.40;;;;;;;13.08;14.96;98405.47;8320141;28;20247;-62
2022/03/12 10:30:18;;;;;;;5.17;4.30;;;;;;;13.89;14.79;98403.25;8319971;28;20235;-62
2022/03/12 10:34:23;;;;;;;5.37;4.83;;;;;;;13.70;14.54;98402.50;8319623;28;20428;-63
2022/03/12 10:38:26;;;;;;;5.27;4.70;;;;;;;13.75;14.83;98402.28;8319301;28;20273;-63
2022/03/12 10:42:29;;;;;;;5.90;5.30;;;;;;;13.93;14.56;98401.34;8316824;28;20240;-63
2022/03/12 10:46:35;;;;;;;7.10;4.90;;;;;;;13.10;15.09;98389.81;8286366;28;20417;-65
2022/03/12 10:50:42;;;;;;;5.83;4.70;;;;;;;14.10;14.80;98378.81;8286699;28;20548;-63
2022/03/12 10:54:45;;;;;;;9.67;5.10;;;;;;;12.34;15.24;98382.06;8286351;28;20233;-64
2022/03/12 10:58:51;;;;;;;9.90;5.10;;;;;;;11.88;15.94;98373.63;8291127;28;20235;-64
2022/03/12 11:02:57;;;;;;;7.50;4.80;;;;;;;12.66;14.96;98379.72;8318552;28;20523;-64
2022/03/12 11:07:23;;;;;;;5.10;4.53;;;;;;;13.41;14.51;98367.53;8318167;28;20229;-63
2022/03/12 11:11:26;;;;;;;5.20;4.70;;;;;;;12.60;15.50;98369.63;8298823;28;20299;-63
2022/03/12 11:15:32;;;;;;;7.60;4.77;;;;;;;13.51;15.09;98378.31;8289163;28;20224;-64
2022/03/12 11:19:42;;;;;;;5.90;5.00;;;;;;;12.95;15.37;98374.94;8317983;28;20232;-63
2022/03/12 11:23:46;;;;;;;5.27;4.77;;;;;;;13.46;14.80;98365.53;8317933;28;20240;-63
2022/03/12 11:27:50;;;;;;;7.10;4.80;;;;;;;14.22;14.89;98371.19;8317924;28;20535;-63
2022/03/12 11:31:55;;;;;;;6.17;4.70;;;;;;;13.67;14.63;98377.50;8318354;28;20233;-63
2022/03/12 11:35:59;;;;;;;7.00;5.00;;;;;;;14.53;14.34;98373.94;8318179;28;20410;-63
2022/03/12 11:40:04;;;;;;;5.60;4.57;;;;;;;14.83;14.13;98355.78;8317516;28;20232;-63
2022/03/12 11:44:08;;;;;;;6.13;4.87;;;;;;;15.58;14.25;98358.50;8317386;28;20239;-63
2022/03/12 11:48:11;;;;;;;5.57;4.83;;;;;;;14.80;14.65;98354.19;8317741;28;20236;-63
2022/03/12 11:52:15;;;;;;;5.60;5.10;;;;;;;14.73;14.76;98341.59;8317116;28;20229;-63
2022/03/12 11:56:27;;;;;;;8.50;5.17;;;;;;;14.18;14.24;98338.41;8316349;28;20512;-64
2022/03/12 12:00:30;;;;;;;9.80;5.73;;;;;;;14.17;14.88;98338.50;8306587;28;20230;-64
2022/03/12 12:04:35;;;;;;;6.73;5.30;;;;;;;14.15;14.69;98330.78;8301095;28;20591;-64
2022/03/12 12:08:39;;;;;;;6.63;5.00;;;;;;;14.46;14.98;98322.13;8316632;28;20249;-63
2022/03/12 12:12:46;;;;;;;8.50;5.10;;;;;;;14.46;21.79;98324.75;8316633;28;20429;-63
2022/03/12 12:16:49;;;;;;;9.67;4.77;;;;;;;14.43;15.89;98316.25;8311144;28;20229;-63
2022/03/12 12:20:52;;;;;;;6.23;5.33;;;;;;;15.20;16.69;98320.66;8300660;28;20546;-60
2022/03/12 12:24:56;;;;;;;7.37;5.53;;;;;;;15.20;16.45;98310.22;8315216;28;20229;-60
2022/03/12 12:29:01;;;;;;;12.33;5.60;;;;;;;15.98;17.29;98299.53;8315780;28;20239;-59
2022/03/12 12:33:14;;;;;;;6.40;5.20;;;;;;;15.38;14.75;98295.28;8315286;28;20232;-63
2022/03/12 12:37:17;;;;;;;9.50;5.90;;;;;;;15.77;14.00;98280.81;8314028;28;20240;-62
2022/03/12 12:41:20;;;;;;;8.73;5.60;;;;;;;15.15;14.88;98267.91;8285221;28;20237;-62
2022/03/12 12:45:26;;;;;;;9.30;5.90;;;;;;;14.63;15.35;98269.13;8282420;28;20246;-62
2022/03/12 12:49:33;;;;;;;8.73;6.30;;;;;;;14.92;15.00;98250.16;8282659;28;20242;-62
2022/03/12 12:53:38;;;;;;;6.97;5.60;;;;;;;14.53;15.48;98254.91;8282277;28;20260;-63
2022/03/12 12:57:44;;;;;;;9.37;6.67;;;;;;;14.84;15.60;98256.63;8281981;28;20244;-63
2022/03/12 13:01:58;;;;;;;9.00;6.20;;;;;;;15.07;14.85;98253.63;8293248;28;20244;-63
2022/03/12 13:06:02;;;;;;;11.23;6.30;;;;;;;14.22;15.06;98245.31;8314559;28;20251;-63
2022/03/12 13:10:05;;;;;;;9.53;6.67;;;;;;;14.99;14.89;98235.81;8314123;28;20537;-63
2022/03/12 13:14:10;;;;;;;12.97;6.47;;;;;;;15.18;14.66;98227.78;8314913;28;20228;-63
2022/03/12 13:18:40;;;;;;;9.43;6.53;;;;;;;15.27;14.86;98234.19;8314873;28;20244;-63
2022/03/12 13:22:43;;;;;;;8.87;6.30;;;;;;;15.09;15.60;98236.97;8314602;28;20531;-63
2022/03/12 13:26:46;;;;;;;11.53;7.23;;;;;;;15.66;15.22;98217.91;8315316;28;20239;-63
2022/03/12 13:30:52;;;;;;;10.47;7.03;;;;;;;15.61;15.08;98205.16;8314795;28;20239;-63
2022/03/12 13:35:01;;;;;;;11.90;6.87;;;;;;;15.96;14.65;98214.38;8314655;28;20229;-63
2022/03/12 13:39:06;;;;;;;8.80;6.73;;;;;;;15.05;15.09;98204.16;8315212;28;20233;-63
2022/03/12 13:43:09;;;;;;;8.27;6.77;;;;;;;15.90;15.24;98204.34;8314465;28;20299;-63
2022/03/12 13:47:20;;;;;;;8.03;7.13;;;;;;;15.45;15.55;98180.91;8314069;28;20264;-63
2022/03/12 13:51:25;;;;;;;11.30;7.00;;;;;;;14.93;15.72;98187.47;8314140;28;20593;-63
2022/03/12 13:55:29;;;;;;;8.47;7.40;;;;;;;14.98;15.96;98182.84;8303574;28;20292;-63
2022/03/12 13:59:34;;;;;;;8.73;7.83;;;;;;;14.85;16.08;98177.50;8313605;28;20233;-63
2022/03/12 14:03:45;;;;;;;8.07;6.90;;;;;;;15.74;15.29;98168.69;8314155;28;20427;-63
2022/03/12 14:07:51;;;;;;;10.80;7.50;;;;;;;15.90;14.72;98173.81;8313694;28;20428;-63
2022/03/12 14:11:56;;;;;;;8.77;7.00;;;;;;;16.27;15.14;98168.03;8304224;28;20229;-63
2022/03/12 14:16:00;;;;;;;9.43;8.40;;;;;;;15.44;15.64;98163.59;8313237;28;20388;-62
2022/03/12 14:20:05;;;;;;;10.70;8.77;;;;;;;15.52;15.70;98166.56;8318841;28;20243;-63
2022/03/12 14:24:15;;;;;;;10.00;8.40;;;;;;;15.52;15.72;98165.72;8320201;28;20232;-62
2022/03/12 14:28:19;;;;;;;12.93;8.37;;;;;;;15.24;15.98;98157.78;8320144;28;20233;-63
2022/03/12 14:32:23;;;;;;;9.70;8.70;;;;;;;15.53;15.90;98155.16;8319859;28;20470;-63
2022/03/12 14:36:26;;;;;;;11.73;8.70;;;;;;;15.39;16.32;98150.81;8319950;28;20240;-62
2022/03/12 14:40:33;;;;;;;10.53;8.37;;;;;;;15.30;15.74;98159.19;8319333;28;20237;-62
2022/03/12 14:44:41;;;;;;;9.47;8.47;;;;;;;15.16;16.36;98146.16;8319280;28;20233;-62
2022/03/12 14:48:44;;;;;;;11.90;8.70;;;;;;;15.06;16.45;98140.66;8319760;28;20233;-62
2022/03/12 14:52:48;;;;;;;12.00;8.53;;;;;;;15.49;15.98;98140.63;8319376;28;20413;-62
2022/03/12 14:56:54;;;;;;;12.37;8.90;;;;;;;15.35;15.85;98138.88;8319100;28;20264;-62
2022/03/12 15:00:58;;;;;;;12.13;9.37;;;;;;;15.13;16.28;98130.69;8319122;28;20232;-62
2022/03/12 15:05:03;;;;;;;9.87;8.50;;;;;;;15.25;16.16;98143.81;8319258;28;20543;-62
2022/03/12 15:09:09;;;;;;;9.50;8.20;;;;;;;15.31;15.94;98137.41;8318456;28;20237;-62
2022/03/12 15:13:14;;;;;;;11.10;8.57;;;;;;;14.82;16.08;98135.94;8318651;28;20232;-62
2022/03/12 15:17:26;;;;;;;9.17;8.27;;;;;;;15.13;16.25;98134.13;8318430;28;20539;-62
2022/03/12 15:21:29;;;;;;;9.50;8.47;;;;;;;15.35;16.16;98132.84;8318336;28;20243;-62
2022/03/12 15:25:35;;;;;;;11.53;8.83;;;;;;;14.42;17.04;98140.84;8317714;28;20409;-62
2022/03/12 15:29:40;;;;;;;13.00;8.50;;;;;;;14.17;16.83;98135.34;8316575;28;20237;-62
2022/03/12 15:33:50;;;;;;;16.23;9.50;;;;;;;14.72;16.70;98132.22;8317736;28;20258;-62
2022/03/12 15:37:53;;;;;;;11.00;8.83;;;;;;;14.35;17.03;98136.91;8318010;28;20229;-62
2022/03/12 15:41:56;;;;;;;12.33;8.73;;;;;;;14.63;16.80;98138.78;8317581;28;20232;-62
2022/03/12 15:46:01;;;;;;;12.73;9.97;;;;;;;14.31;17.18;98130.19;8317418;28;20550;-62
2022/03/12 15:50:05;;;;;;;12.87;7.87;;;;;;;14.26;17.07;98121.81;8317452;28;20239;-62
2022/03/12 15:54:28;;;;;;;9.50;6.87;;;;;;;14.37;16.77;98123.78;8317209;28;20237;-62
2022/03/12 15:58:31;;;;;;;11.93;7.30;;;;;;;14.29;16.82;98113.81;8316652;28;20228;-63
2022/03/12 16:02:35;;;;;;;9.43;7.27;;;;;;;14.22;17.48;98112.47;8316625;28;20237;-62
2022/03/12 16:06:43;;;;;;;8.37;6.97;;;;;;;13.90;17.47;98112.53;8317148;28;20232;-62
2022/03/12 16:10:46;;;;;;;10.50;8.67;;;;;;;14.00;17.68;98116.28;8316566;28;20248;-62
2022/03/12 16:14:49;;;;;;;19.43;12.10;;;;;;;13.55;17.59;98110.09;8316280;28;20544;-62
2022/03/12 16:18:53;;;;;;;11.03;8.40;;;;;;;13.60;17.88;98110.69;8316449;28;20229;-61
2022/03/12 16:22:58;;;;;;;8.50;6.53;;;;;;;13.46;17.66;98116.63;8316381;28;20259;-62
2022/03/12 16:27:01;;;;;;;10.80;7.30;;;;;;;13.44;17.84;98118.50;8316157;28;20233;-62
2022/03/12 16:31:07;;;;;;;15.57;8.10;;;;;;;13.26;18.32;98115.06;8316117;28;20232;-61
2022/03/12 16:35:14;;;;;;;15.50;9.23;;;;;;;13.22;18.04;98112.72;8316147;28;20229;-62
2022/03/12 16:39:17;;;;;;;11.43;7.53;;;;;;;13.26;18.09;98109.84;8316072;28;20241;-62
2022/03/12 16:43:21;;;;;;;12.27;6.83;;;;;;;13.06;18.07;98110.06;8315374;28;20418;-62
2022/03/12 16:47:24;;;;;;;11.13;7.97;;;;;;;13.13;18.24;98110.59;8315498;28;20229;-61
2022/03/12 16:51:29;;;;;;;11.70;8.03;;;;;;;12.88;18.27;98110.09;8315412;28;20236;-61
2022/03/12 16:55:33;;;;;;;9.83;7.83;;;;;;;13.02;18.49;98108.53;8314891;28;20267;-62
2022/03/12 16:59:36;;;;;;;10.57;8.13;;;;;;;12.59;18.72;98111.59;8315177;28;20255;-62
2022/03/12 17:03:39;;;;;;;12.13;7.90;;;;;;;12.88;18.77;98107.50;8315203;28;20237;-62
2022/03/12 17:07:44;;;;;;;10.37;8.30;;;;;;;12.59;18.71;98106.38;8314938;28;20240;-62
2022/03/12 17:11:48;;;;;;;10.97;8.90;;;;;;;12.62;18.93;98106.25;8315160;28;20240;-62
2022/03/12 17:15:51;;;;;;;13.17;10.30;;;;;;;12.68;19.10;98108.53;8314803;28;20240;-62
2022/03/12 17:19:55;;;;;;;9.83;8.07;;;;;;;12.51;19.28;98111.97;8315135;28;20300;-62
2022/03/12 17:24:00;;;;;;;15.30;8.50;;;;;;;12.28;19.21;98110.50;8314879;28;20236;-62
2022/03/12 17:28:05;;;;;;;10.50;8.20;;;;;;;12.62;19.47;98118.38;8314914;28;20228;-62
2022/03/12 17:32:09;;;;;;;14.23;10.83;;;;;;;12.42;19.33;98112.41;8314814;28;20260;-62
2022/03/12 17:36:12;;;;;;;16.30;13.27;;;;;;;12.43;19.48;98116.72;8314661;28;20233;-62
2022/03/12 17:40:19;;;;;;;16.27;12.30;;;;;;;12.40;19.49;98118.63;8314604;28;20240;-61
2022/03/12 17:44:22;;;;;;;17.17;13.40;;;;;;;12.27;19.79;98124.41;8315083;28;20554;-62
2022/03/12 17:48:25;;;;;;;14.80;10.57;;;;;;;12.07;19.44;98122.78;8314703;28;20237;-62
2022/03/12 17:52:28;;;;;;;13.07;9.20;;;;;;;12.26;19.67;98127.91;8315415;28;20240;-62
2022/03/12 17:56:33;;;;;;;11.77;8.90;;;;;;;12.33;19.77;98124.09;8320715;28;20402;-62
2022/03/12 18:00:38;;;;;;;11.93;8.70;;;;;;;11.83;20.06;98124.75;8320667;28;20435;-62
2022/03/12 18:04:43;;;;;;;12.70;8.20;;;;;;;12.23;20.46;98129.81;8320967;28;20299;-62
2022/03/12 18:08:46;;;;;;;12.37;9.13;;;;;;;12.24;21.46;98131.50;8311417;28;20252;-62
2022/03/12 18:12:52;;;;;;;13.03;8.87;;;;;;;12.18;21.20;98131.78;8321122;28;20527;-62
2022/03/12 18:16:55;;;;;;;12.53;9.63;;;;;;;12.18;21.91;98124.00;8320862;28;20235;-61
2022/03/12 18:20:58;;;;;;;15.97;9.83;;;;;;;12.05;21.74;98123.75;8320236;28;20239;-62
2022/03/12 18:25:01;;;;;;;29.30;13.83;;;;;;;11.96;21.94;98124.22;8320056;28;20233;-62
2022/03/12 18:29:05;;;;;;;22.60;14.93;;;;;;;11.87;22.06;98113.28;8319864;28;20240;-62
2022/03/12 18:33:08;;;;;;;22.53;14.80;;;;;;;11.77;22.85;98119.84;8319855;28;20236;-62
2022/03/12 18:37:11;;;;;;;20.87;14.87;;;;;;;11.71;22.89;98118.38;8319690;28;20236;-62
2022/03/12 18:41:14;;;;;;;20.43;15.83;;;;;;;11.68;23.42;98125.44;8319369;28;20260;-62
2022/03/12 18:45:20;;;;;;;24.53;16.30;;;;;;;11.58;23.40;98126.81;8319731;28;20240;-62
2022/03/12 18:49:23;;;;;;;23.80;17.43;;;;;;;11.42;23.54;98129.22;8319575;28;20239;-62
2022/03/12 18:53:26;;;;;;;14.60;10.57;;;;;;;11.46;23.07;98123.84;8319409;28;20590;-61
2022/03/12 18:57:29;;;;;;;17.17;11.70;;;;;;;11.45;23.08;98122.16;8319364;28;20228;-62
2022/03/12 19:01:34;;;;;;;13.47;11.63;;;;;;;11.41;23.25;98117.19;8318556;28;20228;-62
2022/03/12 19:05:37;;;;;;;13.97;12.40;;;;;;;11.33;23.15;98123.56;8318708;28;20240;-62
2022/03/12 19:09:40;;;;;;;22.80;17.33;;;;;;;11.34;23.57;98117.44;8318070;28;20416;-61
2022/03/12 19:13:50;;;;;;;36.10;26.10;;;;;;;11.21;23.57;98118.91;8318425;28;20253;-62